sensor_id;sensor_type;location;lat;lon;timestamp;P1;durP1;ratioP1;P2;durP2;ratioP2
63693;SDS011;49839;51.798;10.954;2022-07-29T00:00:00;3.58;;;0.90;;
63693;SDS011;49839;51.798;10.954;2022-07-29T00:02:28;6.70;;;1.08;;
63693;SDS011;49839;51.798;10.954;2022-07-29T00:04:55;6.13;;;1.38;;
63693;SDS011;49839;51.798;10.954;2022-07-29T00:07:23;5.65;;;1.30;;
63693;SDS011;49839;51.798;10.954;2022-07-29T00:09:51;5.32;;;1.50;;
63693;SDS011;49839;51.798;10.954;2022-07-29T00:12:21;5.95;;;1.45;;
63693;SDS011;49839;51.798;10.954;2022-07-29T00:14:52;4.55;;;1.15;;
63693;SDS011;49839;51.798;10.954;2022-07-29T00:17:20;5.85;;;1.30;;
63693;SDS011;49839;51.798;10.954;2022-07-29T00:19:48;5.60;;;1.10;;
63693;SDS011;49839;51.798;10.954;2022-07-29T00:22:15;6.07;;;1.10;;
63693;SDS011;49839;51.798;10.954;2022-07-29T00:24:43;3.28;;;0.93;;
63693;SDS011;49839;51.798;10.954;2022-07-29T00:27:11;5.30;;;0.98;;
63693;SDS011;49839;51.798;10.954;2022-07-29T00:29:40;6.88;;;1.20;;
63693;SDS011;49839;51.798;10.954;2022-07-29T00:32:07;5.13;;;1.00;;
63693;SDS011;49839;51.798;10.954;2022-07-29T00:34:35;5.68;;;1.42;;
63693;SDS011;49839;51.798;10.954;2022-07-29T00:37:20;4.55;;;1.05;;
63693;SDS011;49839;51.798;10.954;2022-07-29T00:39:48;4.75;;;1.10;;
63693;SDS011;49839;51.798;10.954;2022-07-29T00:42:16;4.22;;;1.30;;
63693;SDS011;49839;51.798;10.954;2022-07-29T00:44:45;5.43;;;1.10;;
63693;SDS011;49839;51.798;10.954;2022-07-29T00:47:13;5.35;;;1.35;;
63693;SDS011;49839;51.798;10.954;2022-07-29T00:49:41;9.50;;;1.40;;
63693;SDS011;49839;51.798;10.954;2022-07-29T00:52:09;4.10;;;0.98;;
63693;SDS011;49839;51.798;10.954;2022-07-29T00:54:38;4.18;;;1.15;;
63693;SDS011;49839;51.798;10.954;2022-07-29T00:57:10;6.78;;;1.13;;
63693;SDS011;49839;51.798;10.954;2022-07-29T00:59:38;4.72;;;1.00;;
63693;SDS011;49839;51.798;10.954;2022-07-29T01:02:07;5.13;;;1.00;;
63693;SDS011;49839;51.798;10.954;2022-07-29T01:04:35;5.18;;;1.15;;
63693;SDS011;49839;51.798;10.954;2022-07-29T01:07:03;5.13;;;1.17;;
63693;SDS011;49839;51.798;10.954;2022-07-29T01:09:31;3.50;;;1.00;;
63693;SDS011;49839;51.798;10.954;2022-07-29T01:12:12;4.88;;;1.00;;
63693;SDS011;49839;51.798;10.954;2022-07-29T01:14:42;7.93;;;1.35;;
63693;SDS011;49839;51.798;10.954;2022-07-29T01:17:12;3.92;;;1.00;;
63693;SDS011;49839;51.798;10.954;2022-07-29T01:19:48;3.63;;;0.80;;
63693;SDS011;49839;51.798;10.954;2022-07-29T01:22:29;3.05;;;1.13;;
63693;SDS011;49839;51.798;10.954;2022-07-29T01:25:22;6.32;;;1.00;;
63693;SDS011;49839;51.798;10.954;2022-07-29T01:28:09;5.03;;;1.20;;
63693;SDS011;49839;51.798;10.954;2022-07-29T01:30:51;5.43;;;1.20;;
63693;SDS011;49839;51.798;10.954;2022-07-29T01:33:20;8.23;;;1.33;;
63693;SDS011;49839;51.798;10.954;2022-07-29T01:36:10;4.40;;;1.00;;
63693;SDS011;49839;51.798;10.954;2022-07-29T01:38:41;5.70;;;1.40;;
63693;SDS011;49839;51.798;10.954;2022-07-29T01:41:12;4.70;;;0.80;;
63693;SDS011;49839;51.798;10.954;2022-07-29T01:43:44;2.97;;;0.82;;
63693;SDS011;49839;51.798;10.954;2022-07-29T01:46:21;4.43;;;0.90;;
63693;SDS011;49839;51.798;10.954;2022-07-29T01:48:56;4.25;;;1.02;;
63693;SDS011;49839;51.798;10.954;2022-07-29T01:51:29;2.17;;;0.80;;
63693;SDS011;49839;51.798;10.954;2022-07-29T01:54:01;4.93;;;1.30;;
63693;SDS011;49839;51.798;10.954;2022-07-29T01:56:34;3.53;;;0.95;;
63693;SDS011;49839;51.798;10.954;2022-07-29T02:01:33;4.20;;;1.10;;
63693;SDS011;49839;51.798;10.954;2022-07-29T02:04:03;6.35;;;0.93;;
63693;SDS011;49839;51.798;10.954;2022-07-29T02:06:33;8.90;;;1.17;;
63693;SDS011;49839;51.798;10.954;2022-07-29T02:09:05;4.53;;;1.02;;
63693;SDS011;49839;51.798;10.954;2022-07-29T02:11:34;3.65;;;1.20;;
63693;SDS011;49839;51.798;10.954;2022-07-29T02:14:02;5.57;;;1.00;;
63693;SDS011;49839;51.798;10.954;2022-07-29T02:16:33;4.32;;;1.10;;
63693;SDS011;49839;51.798;10.954;2022-07-29T02:19:03;4.93;;;1.02;;
63693;SDS011;49839;51.798;10.954;2022-07-29T02:21:34;4.45;;;1.10;;
63693;SDS011;49839;51.798;10.954;2022-07-29T02:24:03;3.30;;;1.10;;
63693;SDS011;49839;51.798;10.954;2022-07-29T02:26:31;3.97;;;1.00;;
63693;SDS011;49839;51.798;10.954;2022-07-29T02:29:00;6.32;;;1.30;;
63693;SDS011;49839;51.798;10.954;2022-07-29T02:31:30;4.57;;;1.10;;
63693;SDS011;49839;51.798;10.954;2022-07-29T02:34:01;3.63;;;1.17;;
63693;SDS011;49839;51.798;10.954;2022-07-29T02:36:32;4.15;;;1.15;;
63693;SDS011;49839;51.798;10.954;2022-07-29T02:39:01;3.40;;;1.13;;
63693;SDS011;49839;51.798;10.954;2022-07-29T02:44:13;3.08;;;0.90;;
63693;SDS011;49839;51.798;10.954;2022-07-29T02:46:45;4.30;;;1.20;;
63693;SDS011;49839;51.798;10.954;2022-07-29T02:49:18;3.70;;;1.00;;
63693;SDS011;49839;51.798;10.954;2022-07-29T02:51:58;6.55;;;1.10;;
63693;SDS011;49839;51.798;10.954;2022-07-29T02:54:30;8.13;;;1.30;;
63693;SDS011;49839;51.798;10.954;2022-07-29T02:57:02;7.50;;;1.17;;
63693;SDS011;49839;51.798;10.954;2022-07-29T02:59:34;3.67;;;1.05;;
63693;SDS011;49839;51.798;10.954;2022-07-29T03:02:06;4.75;;;1.10;;
63693;SDS011;49839;51.798;10.954;2022-07-29T03:04:35;2.85;;;1.10;;
63693;SDS011;49839;51.798;10.954;2022-07-29T03:07:07;7.30;;;1.20;;
63693;SDS011;49839;51.798;10.954;2022-07-29T03:09:37;3.65;;;1.40;;
63693;SDS011;49839;51.798;10.954;2022-07-29T03:12:05;5.22;;;1.25;;
63693;SDS011;49839;51.798;10.954;2022-07-29T03:14:33;3.70;;;1.30;;
63693;SDS011;49839;51.798;10.954;2022-07-29T03:17:03;4.18;;;1.10;;
63693;SDS011;49839;51.798;10.954;2022-07-29T03:19:32;4.28;;;0.90;;
63693;SDS011;49839;51.798;10.954;2022-07-29T03:22:00;4.13;;;1.05;;
63693;SDS011;49839;51.798;10.954;2022-07-29T03:24:30;3.13;;;0.77;;
63693;SDS011;49839;51.798;10.954;2022-07-29T03:27:00;4.72;;;0.98;;
63693;SDS011;49839;51.798;10.954;2022-07-29T03:29:29;7.68;;;1.10;;
63693;SDS011;49839;51.798;10.954;2022-07-29T03:31:58;5.25;;;1.25;;
63693;SDS011;49839;51.798;10.954;2022-07-29T03:34:27;4.70;;;1.38;;
63693;SDS011;49839;51.798;10.954;2022-07-29T03:36:56;3.78;;;1.30;;
63693;SDS011;49839;51.798;10.954;2022-07-29T03:39:25;2.92;;;0.82;;
63693;SDS011;49839;51.798;10.954;2022-07-29T03:41:56;7.32;;;1.25;;
63693;SDS011;49839;51.798;10.954;2022-07-29T03:44:26;5.75;;;1.00;;
63693;SDS011;49839;51.798;10.954;2022-07-29T03:46:55;3.47;;;1.10;;
63693;SDS011;49839;51.798;10.954;2022-07-29T03:49:28;3.55;;;0.98;;
63693;SDS011;49839;51.798;10.954;2022-07-29T03:51:59;8.02;;;1.20;;
63693;SDS011;49839;51.798;10.954;2022-07-29T03:54:27;4.35;;;1.20;;
63693;SDS011;49839;51.798;10.954;2022-07-29T03:56:54;3.08;;;0.85;;
63693;SDS011;49839;51.798;10.954;2022-07-29T03:59:26;4.40;;;1.02;;
63693;SDS011;49839;51.798;10.954;2022-07-29T04:01:54;4.40;;;0.80;;
63693;SDS011;49839;51.798;10.954;2022-07-29T04:04:23;4.57;;;1.10;;
63693;SDS011;49839;51.798;10.954;2022-07-29T04:06:52;5.28;;;1.10;;
63693;SDS011;49839;51.798;10.954;2022-07-29T04:09:21;4.72;;;1.35;;
63693;SDS011;49839;51.798;10.954;2022-07-29T04:11:49;5.07;;;1.25;;
63693;SDS011;49839;51.798;10.954;2022-07-29T04:14:28;6.88;;;1.17;;
63693;SDS011;49839;51.798;10.954;2022-07-29T04:16:55;4.45;;;1.30;;
63693;SDS011;49839;51.798;10.954;2022-07-29T04:19:23;5.22;;;1.42;;
63693;SDS011;49839;51.798;10.954;2022-07-29T04:21:50;4.65;;;1.45;;
63693;SDS011;49839;51.798;10.954;2022-07-29T04:24:18;3.42;;;1.17;;
63693;SDS011;49839;51.798;10.954;2022-07-29T04:26:47;7.45;;;1.50;;
63693;SDS011;49839;51.798;10.954;2022-07-29T04:29:16;5.53;;;1.10;;
63693;SDS011;49839;51.798;10.954;2022-07-29T04:31:43;2.92;;;0.98;;
63693;SDS011;49839;51.798;10.954;2022-07-29T04:34:12;3.83;;;1.20;;
63693;SDS011;49839;51.798;10.954;2022-07-29T04:36:40;6.38;;;1.30;;
63693;SDS011;49839;51.798;10.954;2022-07-29T04:39:08;4.07;;;1.30;;
63693;SDS011;49839;51.798;10.954;2022-07-29T04:41:36;5.63;;;1.40;;
63693;SDS011;49839;51.798;10.954;2022-07-29T04:44:05;7.32;;;1.27;;
63693;SDS011;49839;51.798;10.954;2022-07-29T04:46:34;4.15;;;1.00;;
63693;SDS011;49839;51.798;10.954;2022-07-29T04:49:02;8.57;;;1.85;;
63693;SDS011;49839;51.798;10.954;2022-07-29T04:51:30;3.58;;;0.95;;
63693;SDS011;49839;51.798;10.954;2022-07-29T04:53:58;4.13;;;1.08;;
63693;SDS011;49839;51.798;10.954;2022-07-29T04:56:25;5.18;;;1.35;;
63693;SDS011;49839;51.798;10.954;2022-07-29T04:58:53;4.30;;;1.20;;
63693;SDS011;49839;51.798;10.954;2022-07-29T05:01:22;6.18;;;1.40;;
63693;SDS011;49839;51.798;10.954;2022-07-29T05:03:50;4.45;;;1.30;;
63693;SDS011;49839;51.798;10.954;2022-07-29T05:06:22;3.83;;;1.05;;
63693;SDS011;49839;51.798;10.954;2022-07-29T05:08:49;5.00;;;1.20;;
63693;SDS011;49839;51.798;10.954;2022-07-29T05:11:17;5.65;;;1.40;;
63693;SDS011;49839;51.798;10.954;2022-07-29T05:13:47;4.90;;;1.00;;
63693;SDS011;49839;51.798;10.954;2022-07-29T05:16:15;6.45;;;1.33;;
63693;SDS011;49839;51.798;10.954;2022-07-29T05:18:44;4.97;;;1.10;;
63693;SDS011;49839;51.798;10.954;2022-07-29T05:21:11;8.10;;;1.95;;
63693;SDS011;49839;51.798;10.954;2022-07-29T05:23:39;3.08;;;1.02;;
63693;SDS011;49839;51.798;10.954;2022-07-29T05:26:07;6.93;;;1.10;;
63693;SDS011;49839;51.798;10.954;2022-07-29T05:28:34;5.50;;;1.20;;
63693;SDS011;49839;51.798;10.954;2022-07-29T05:31:02;7.43;;;1.20;;
63693;SDS011;49839;51.798;10.954;2022-07-29T05:33:30;5.93;;;1.27;;
63693;SDS011;49839;51.798;10.954;2022-07-29T05:36:03;4.35;;;0.95;;
63693;SDS011;49839;51.798;10.954;2022-07-29T05:38:33;7.55;;;1.50;;
63693;SDS011;49839;51.798;10.954;2022-07-29T05:41:01;5.50;;;1.10;;
63693;SDS011;49839;51.798;10.954;2022-07-29T05:43:29;3.88;;;1.33;;
63693;SDS011;49839;51.798;10.954;2022-07-29T05:45:57;7.63;;;1.35;;
63693;SDS011;49839;51.798;10.954;2022-07-29T05:48:25;3.90;;;1.20;;
63693;SDS011;49839;51.798;10.954;2022-07-29T05:50:52;5.40;;;1.20;;
63693;SDS011;49839;51.798;10.954;2022-07-29T05:53:21;4.95;;;1.20;;
63693;SDS011;49839;51.798;10.954;2022-07-29T05:55:50;4.00;;;1.50;;
63693;SDS011;49839;51.798;10.954;2022-07-29T05:58:18;6.50;;;1.38;;
63693;SDS011;49839;51.798;10.954;2022-07-29T06:00:45;5.07;;;1.35;;
63693;SDS011;49839;51.798;10.954;2022-07-29T06:03:13;7.28;;;1.40;;
63693;SDS011;49839;51.798;10.954;2022-07-29T06:05:41;6.60;;;1.20;;
63693;SDS011;49839;51.798;10.954;2022-07-29T06:08:09;6.28;;;1.27;;
63693;SDS011;49839;51.798;10.954;2022-07-29T06:10:38;7.50;;;1.33;;
63693;SDS011;49839;51.798;10.954;2022-07-29T06:13:06;5.28;;;1.20;;
63693;SDS011;49839;51.798;10.954;2022-07-29T06:15:33;2.58;;;0.95;;
63693;SDS011;49839;51.798;10.954;2022-07-29T06:18:01;8.65;;;1.50;;
63693;SDS011;49839;51.798;10.954;2022-07-29T06:20:29;9.20;;;1.13;;
63693;SDS011;49839;51.798;10.954;2022-07-29T06:22:58;4.85;;;1.30;;
63693;SDS011;49839;51.798;10.954;2022-07-29T06:25:26;5.05;;;1.27;;
63693;SDS011;49839;51.798;10.954;2022-07-29T06:27:57;5.28;;;1.30;;
63693;SDS011;49839;51.798;10.954;2022-07-29T06:30:24;9.02;;;1.30;;
63693;SDS011;49839;51.798;10.954;2022-07-29T06:32:52;4.72;;;1.15;;
63693;SDS011;49839;51.798;10.954;2022-07-29T06:35:20;6.95;;;1.30;;
63693;SDS011;49839;51.798;10.954;2022-07-29T06:38:07;4.93;;;1.05;;
63693;SDS011;49839;51.798;10.954;2022-07-29T06:40:55;5.07;;;1.17;;
63693;SDS011;49839;51.798;10.954;2022-07-29T06:43:31;6.75;;;1.40;;
63693;SDS011;49839;51.798;10.954;2022-07-29T06:46:02;6.93;;;1.20;;
63693;SDS011;49839;51.798;10.954;2022-07-29T06:48:32;7.88;;;1.30;;
63693;SDS011;49839;51.798;10.954;2022-07-29T06:51:00;8.68;;;1.40;;
63693;SDS011;49839;51.798;10.954;2022-07-29T06:53:28;5.38;;;1.30;;
63693;SDS011;49839;51.798;10.954;2022-07-29T06:55:56;7.05;;;1.35;;
63693;SDS011;49839;51.798;10.954;2022-07-29T06:58:25;8.73;;;1.50;;
63693;SDS011;49839;51.798;10.954;2022-07-29T07:00:54;7.25;;;1.40;;
63693;SDS011;49839;51.798;10.954;2022-07-29T07:03:23;10.80;;;1.70;;
63693;SDS011;49839;51.798;10.954;2022-07-29T07:05:51;5.95;;;1.40;;
63693;SDS011;49839;51.798;10.954;2022-07-29T07:08:20;5.90;;;1.27;;
63693;SDS011;49839;51.798;10.954;2022-07-29T07:10:48;6.97;;;1.48;;
63693;SDS011;49839;51.798;10.954;2022-07-29T07:13:16;4.78;;;1.20;;
63693;SDS011;49839;51.798;10.954;2022-07-29T07:15:44;7.40;;;1.52;;
63693;SDS011;49839;51.798;10.954;2022-07-29T07:18:15;6.32;;;1.50;;
63693;SDS011;49839;51.798;10.954;2022-07-29T07:20:43;13.90;;;1.50;;
63693;SDS011;49839;51.798;10.954;2022-07-29T07:23:11;8.30;;;1.50;;
63693;SDS011;49839;51.798;10.954;2022-07-29T07:25:38;7.28;;;1.48;;
63693;SDS011;49839;51.798;10.954;2022-07-29T07:28:06;3.75;;;1.40;;
63693;SDS011;49839;51.798;10.954;2022-07-29T07:30:33;5.22;;;1.40;;
63693;SDS011;49839;51.798;10.954;2022-07-29T07:33:01;5.03;;;1.40;;
63693;SDS011;49839;51.798;10.954;2022-07-29T07:35:31;4.60;;;1.50;;
63693;SDS011;49839;51.798;10.954;2022-07-29T07:40:26;6.30;;;1.40;;
63693;SDS011;49839;51.798;10.954;2022-07-29T07:42:54;10.02;;;1.40;;
63693;SDS011;49839;51.798;10.954;2022-07-29T07:45:21;6.25;;;1.38;;
63693;SDS011;49839;51.798;10.954;2022-07-29T07:47:49;13.40;;;1.63;;
63693;SDS011;49839;51.798;10.954;2022-07-29T07:50:17;7.85;;;1.58;;
63693;SDS011;49839;51.798;10.954;2022-07-29T07:52:46;5.53;;;1.30;;
63693;SDS011;49839;51.798;10.954;2022-07-29T07:55:16;5.43;;;1.42;;
63693;SDS011;49839;51.798;10.954;2022-07-29T07:57:44;3.28;;;1.20;;
63693;SDS011;49839;51.798;10.954;2022-07-29T08:00:12;5.28;;;1.30;;
63693;SDS011;49839;51.798;10.954;2022-07-29T08:02:41;9.23;;;1.48;;
63693;SDS011;49839;51.798;10.954;2022-07-29T08:05:11;7.13;;;1.58;;
63693;SDS011;49839;51.798;10.954;2022-07-29T08:07:43;10.32;;;1.83;;
63693;SDS011;49839;51.798;10.954;2022-07-29T08:10:13;7.10;;;1.40;;
63693;SDS011;49839;51.798;10.954;2022-07-29T08:12:41;6.80;;;1.63;;
63693;SDS011;49839;51.798;10.954;2022-07-29T08:15:09;12.25;;;1.30;;
63693;SDS011;49839;51.798;10.954;2022-07-29T08:17:36;9.10;;;1.45;;
63693;SDS011;49839;51.798;10.954;2022-07-29T08:20:04;5.65;;;1.40;;
63693;SDS011;49839;51.798;10.954;2022-07-29T08:22:33;5.45;;;1.30;;
63693;SDS011;49839;51.798;10.954;2022-07-29T08:25:00;8.80;;;1.85;;
63693;SDS011;49839;51.798;10.954;2022-07-29T08:27:29;11.75;;;1.20;;
63693;SDS011;49839;51.798;10.954;2022-07-29T08:30:09;5.18;;;1.50;;
63693;SDS011;49839;51.798;10.954;2022-07-29T08:32:36;5.53;;;1.33;;
63693;SDS011;49839;51.798;10.954;2022-07-29T08:35:21;6.90;;;1.42;;
63693;SDS011;49839;51.798;10.954;2022-07-29T08:37:49;8.02;;;1.70;;
63693;SDS011;49839;51.798;10.954;2022-07-29T08:40:17;7.97;;;1.70;;
63693;SDS011;49839;51.798;10.954;2022-07-29T08:42:47;9.18;;;1.80;;
63693;SDS011;49839;51.798;10.954;2022-07-29T08:45:16;14.45;;;1.60;;
63693;SDS011;49839;51.798;10.954;2022-07-29T08:47:44;9.30;;;1.55;;
63693;SDS011;49839;51.798;10.954;2022-07-29T08:50:12;10.32;;;1.90;;
63693;SDS011;49839;51.798;10.954;2022-07-29T08:52:40;9.55;;;2.40;;
63693;SDS011;49839;51.798;10.954;2022-07-29T08:55:09;11.32;;;1.77;;
63693;SDS011;49839;51.798;10.954;2022-07-29T08:57:38;6.93;;;2.00;;
63693;SDS011;49839;51.798;10.954;2022-07-29T09:00:10;9.77;;;1.88;;
63693;SDS011;49839;51.798;10.954;2022-07-29T09:02:39;8.25;;;1.67;;
63693;SDS011;49839;51.798;10.954;2022-07-29T09:05:08;8.05;;;2.00;;
63693;SDS011;49839;51.798;10.954;2022-07-29T09:07:36;12.15;;;1.63;;
63693;SDS011;49839;51.798;10.954;2022-07-29T09:10:06;12.48;;;2.00;;
63693;SDS011;49839;51.798;10.954;2022-07-29T09:12:34;10.27;;;1.73;;
63693;SDS011;49839;51.798;10.954;2022-07-29T09:15:03;7.07;;;1.60;;
63693;SDS011;49839;51.798;10.954;2022-07-29T09:17:42;7.13;;;1.40;;
63693;SDS011;49839;51.798;10.954;2022-07-29T09:20:11;7.53;;;1.65;;
63693;SDS011;49839;51.798;10.954;2022-07-29T09:22:40;5.80;;;1.50;;
63693;SDS011;49839;51.798;10.954;2022-07-29T09:25:08;6.55;;;1.60;;
63693;SDS011;49839;51.798;10.954;2022-07-29T09:27:38;6.90;;;1.42;;
63693;SDS011;49839;51.798;10.954;2022-07-29T09:30:07;7.20;;;1.85;;
63693;SDS011;49839;51.798;10.954;2022-07-29T09:35:27;10.18;;;1.90;;
63693;SDS011;49839;51.798;10.954;2022-07-29T09:40:25;7.43;;;1.40;;
63693;SDS011;49839;51.798;10.954;2022-07-29T09:42:54;8.38;;;1.40;;
63693;SDS011;49839;51.798;10.954;2022-07-29T09:45:27;5.57;;;1.40;;
63693;SDS011;49839;51.798;10.954;2022-07-29T09:47:58;4.05;;;1.35;;
63693;SDS011;49839;51.798;10.954;2022-07-29T09:50:36;5.82;;;1.58;;
63693;SDS011;49839;51.798;10.954;2022-07-29T09:53:05;7.20;;;1.60;;
63693;SDS011;49839;51.798;10.954;2022-07-29T09:55:40;8.23;;;1.73;;
63693;SDS011;49839;51.798;10.954;2022-07-29T09:58:16;7.25;;;1.58;;
63693;SDS011;49839;51.798;10.954;2022-07-29T10:00:45;3.50;;;1.40;;
63693;SDS011;49839;51.798;10.954;2022-07-29T10:03:15;9.85;;;1.70;;
63693;SDS011;49839;51.798;10.954;2022-07-29T10:05:44;10.70;;;1.65;;
63693;SDS011;49839;51.798;10.954;2022-07-29T10:08:13;7.18;;;1.60;;
63693;SDS011;49839;51.798;10.954;2022-07-29T10:10:41;8.13;;;1.70;;
63693;SDS011;49839;51.798;10.954;2022-07-29T10:13:10;10.68;;;1.70;;
63693;SDS011;49839;51.798;10.954;2022-07-29T10:15:42;7.22;;;1.67;;
63693;SDS011;49839;51.798;10.954;2022-07-29T10:18:12;8.93;;;1.63;;
63693;SDS011;49839;51.798;10.954;2022-07-29T10:20:44;8.43;;;1.75;;
63693;SDS011;49839;51.798;10.954;2022-07-29T10:23:12;7.43;;;1.73;;
63693;SDS011;49839;51.798;10.954;2022-07-29T10:25:40;12.93;;;1.80;;
63693;SDS011;49839;51.798;10.954;2022-07-29T10:28:11;6.72;;;1.50;;
63693;SDS011;49839;51.798;10.954;2022-07-29T10:30:41;5.93;;;2.00;;
63693;SDS011;49839;51.798;10.954;2022-07-29T10:33:15;8.27;;;1.58;;
63693;SDS011;49839;51.798;10.954;2022-07-29T10:36:07;9.48;;;2.35;;
63693;SDS011;49839;51.798;10.954;2022-07-29T10:38:48;5.38;;;1.92;;
63693;SDS011;49839;51.798;10.954;2022-07-29T10:41:24;10.02;;;1.88;;
63693;SDS011;49839;51.798;10.954;2022-07-29T10:44:13;7.40;;;1.90;;
63693;SDS011;49839;51.798;10.954;2022-07-29T10:46:44;11.68;;;2.28;;
63693;SDS011;49839;51.798;10.954;2022-07-29T10:49:13;9.13;;;2.10;;
63693;SDS011;49839;51.798;10.954;2022-07-29T10:52:00;7.35;;;2.38;;
63693;SDS011;49839;51.798;10.954;2022-07-29T10:57:14;10.23;;;2.60;;
63693;SDS011;49839;51.798;10.954;2022-07-29T10:59:44;9.75;;;2.65;;
63693;SDS011;49839;51.798;10.954;2022-07-29T11:05:10;9.35;;;2.78;;
63693;SDS011;49839;51.798;10.954;2022-07-29T11:13:58;6.20;;;2.83;;
63693;SDS011;49839;51.798;10.954;2022-07-29T11:16:26;8.30;;;2.72;;
63693;SDS011;49839;51.798;10.954;2022-07-29T11:19:28;9.32;;;2.90;;
63693;SDS011;49839;51.798;10.954;2022-07-29T11:21:56;9.38;;;3.17;;
63693;SDS011;49839;51.798;10.954;2022-07-29T11:24:26;7.70;;;3.20;;
63693;SDS011;49839;51.798;10.954;2022-07-29T11:27:06;9.75;;;3.28;;
63693;SDS011;49839;51.798;10.954;2022-07-29T11:29:35;9.83;;;3.37;;
63693;SDS011;49839;51.798;10.954;2022-07-29T11:32:10;10.90;;;2.85;;
63693;SDS011;49839;51.798;10.954;2022-07-29T11:34:41;12.25;;;3.70;;
63693;SDS011;49839;51.798;10.954;2022-07-29T11:37:16;7.80;;;3.43;;
63693;SDS011;49839;51.798;10.954;2022-07-29T11:40:11;11.02;;;3.35;;
63693;SDS011;49839;51.798;10.954;2022-07-29T11:43:02;12.50;;;3.92;;
63693;SDS011;49839;51.798;10.954;2022-07-29T11:45:51;8.32;;;3.60;;
63693;SDS011;49839;51.798;10.954;2022-07-29T11:48:18;6.90;;;3.30;;
63693;SDS011;49839;51.798;10.954;2022-07-29T11:50:55;9.60;;;3.70;;
63693;SDS011;49839;51.798;10.954;2022-07-29T11:56:15;10.88;;;3.28;;
63693;SDS011;49839;51.798;10.954;2022-07-29T11:58:48;9.82;;;3.38;;
63693;SDS011;49839;51.798;10.954;2022-07-29T12:01:16;11.07;;;3.15;;
63693;SDS011;49839;51.798;10.954;2022-07-29T12:03:45;9.15;;;2.92;;
63693;SDS011;49839;51.798;10.954;2022-07-29T12:06:14;8.23;;;3.17;;
63693;SDS011;49839;51.798;10.954;2022-07-29T12:08:43;6.63;;;3.30;;
63693;SDS011;49839;51.798;10.954;2022-07-29T12:11:17;7.57;;;2.90;;
63693;SDS011;49839;51.798;10.954;2022-07-29T12:13:48;7.95;;;2.70;;
63693;SDS011;49839;51.798;10.954;2022-07-29T12:16:16;11.20;;;3.70;;
63693;SDS011;49839;51.798;10.954;2022-07-29T12:18:54;9.32;;;3.13;;
63693;SDS011;49839;51.798;10.954;2022-07-29T12:21:23;7.97;;;2.72;;
63693;SDS011;49839;51.798;10.954;2022-07-29T12:23:52;9.95;;;2.90;;
63693;SDS011;49839;51.798;10.954;2022-07-29T12:26:22;7.72;;;2.80;;
63693;SDS011;49839;51.798;10.954;2022-07-29T12:28:51;9.30;;;2.67;;
63693;SDS011;49839;51.798;10.954;2022-07-29T12:31:23;10.55;;;2.53;;
63693;SDS011;49839;51.798;10.954;2022-07-29T12:34:07;9.10;;;2.53;;
63693;SDS011;49839;51.798;10.954;2022-07-29T12:36:35;10.57;;;2.60;;
63693;SDS011;49839;51.798;10.954;2022-07-29T12:39:03;7.97;;;2.67;;
63693;SDS011;49839;51.798;10.954;2022-07-29T12:41:32;8.00;;;2.63;;
63693;SDS011;49839;51.798;10.954;2022-07-29T12:44:00;7.25;;;2.40;;
63693;SDS011;49839;51.798;10.954;2022-07-29T12:46:28;9.57;;;2.40;;
63693;SDS011;49839;51.798;10.954;2022-07-29T12:48:56;6.47;;;2.45;;
63693;SDS011;49839;51.798;10.954;2022-07-29T12:51:28;9.45;;;2.40;;
63693;SDS011;49839;51.798;10.954;2022-07-29T12:54:04;9.25;;;2.72;;
63693;SDS011;49839;51.798;10.954;2022-07-29T12:56:35;9.52;;;2.83;;
63693;SDS011;49839;51.798;10.954;2022-07-29T12:59:12;7.38;;;2.58;;
63693;SDS011;49839;51.798;10.954;2022-07-29T13:01:41;7.53;;;2.38;;
63693;SDS011;49839;51.798;10.954;2022-07-29T13:04:09;6.20;;;2.42;;
63693;SDS011;49839;51.798;10.954;2022-07-29T13:06:38;6.30;;;2.10;;
63693;SDS011;49839;51.798;10.954;2022-07-29T13:09:10;7.28;;;2.15;;
63693;SDS011;49839;51.798;10.954;2022-07-29T13:11:45;9.95;;;2.25;;
63693;SDS011;49839;51.798;10.954;2022-07-29T13:14:29;7.40;;;2.60;;
63693;SDS011;49839;51.798;10.954;2022-07-29T13:17:00;6.72;;;2.55;;
63693;SDS011;49839;51.798;10.954;2022-07-29T13:19:37;6.07;;;2.25;;
63693;SDS011;49839;51.798;10.954;2022-07-29T13:22:07;6.28;;;2.10;;
63693;SDS011;49839;51.798;10.954;2022-07-29T13:24:45;7.88;;;1.92;;
63693;SDS011;49839;51.798;10.954;2022-07-29T13:27:18;6.65;;;2.15;;
63693;SDS011;49839;51.798;10.954;2022-07-29T13:29:47;10.63;;;2.40;;
63693;SDS011;49839;51.798;10.954;2022-07-29T13:32:17;9.65;;;2.35;;
63693;SDS011;49839;51.798;10.954;2022-07-29T13:34:45;4.63;;;2.20;;
63693;SDS011;49839;51.798;10.954;2022-07-29T13:37:13;15.32;;;2.10;;
63693;SDS011;49839;51.798;10.954;2022-07-29T13:39:41;9.93;;;1.95;;
63693;SDS011;49839;51.798;10.954;2022-07-29T13:42:09;6.35;;;2.17;;
63693;SDS011;49839;51.798;10.954;2022-07-29T13:44:40;7.13;;;2.08;;
63693;SDS011;49839;51.798;10.954;2022-07-29T13:49:35;5.63;;;2.03;;
63693;SDS011;49839;51.798;10.954;2022-07-29T13:52:03;7.53;;;1.63;;
63693;SDS011;49839;51.798;10.954;2022-07-29T13:54:33;5.50;;;1.80;;
63693;SDS011;49839;51.798;10.954;2022-07-29T13:57:07;8.02;;;2.15;;
63693;SDS011;49839;51.798;10.954;2022-07-29T13:59:37;6.63;;;2.00;;
63693;SDS011;49839;51.798;10.954;2022-07-29T14:02:06;6.80;;;1.88;;
63693;SDS011;49839;51.798;10.954;2022-07-29T14:07:01;5.03;;;1.98;;
63693;SDS011;49839;51.798;10.954;2022-07-29T14:09:29;6.03;;;2.00;;
63693;SDS011;49839;51.798;10.954;2022-07-29T14:12:06;8.95;;;1.65;;
63693;SDS011;49839;51.798;10.954;2022-07-29T14:14:35;6.78;;;2.00;;
63693;SDS011;49839;51.798;10.954;2022-07-29T14:17:02;6.70;;;1.98;;
63693;SDS011;49839;51.798;10.954;2022-07-29T14:19:34;7.35;;;2.10;;
63693;SDS011;49839;51.798;10.954;2022-07-29T14:22:04;6.22;;;2.08;;
63693;SDS011;49839;51.798;10.954;2022-07-29T14:24:33;9.77;;;2.38;;
63693;SDS011;49839;51.798;10.954;2022-07-29T14:27:02;6.78;;;2.10;;
63693;SDS011;49839;51.798;10.954;2022-07-29T14:29:30;5.53;;;1.87;;
63693;SDS011;49839;51.798;10.954;2022-07-29T14:32:00;8.77;;;2.10;;
63693;SDS011;49839;51.798;10.954;2022-07-29T14:34:28;6.38;;;1.92;;
63693;SDS011;49839;51.798;10.954;2022-07-29T14:36:57;5.43;;;2.08;;
63693;SDS011;49839;51.798;10.954;2022-07-29T14:39:25;6.78;;;2.10;;
63693;SDS011;49839;51.798;10.954;2022-07-29T14:41:57;10.30;;;2.10;;
63693;SDS011;49839;51.798;10.954;2022-07-29T14:44:25;9.20;;;2.53;;
63693;SDS011;49839;51.798;10.954;2022-07-29T14:46:57;5.22;;;1.70;;
63693;SDS011;49839;51.798;10.954;2022-07-29T14:49:25;8.37;;;2.20;;
63693;SDS011;49839;51.798;10.954;2022-07-29T14:51:53;8.20;;;2.15;;
63693;SDS011;49839;51.798;10.954;2022-07-29T14:54:22;8.15;;;2.10;;
63693;SDS011;49839;51.798;10.954;2022-07-29T14:56:50;5.57;;;1.90;;
63693;SDS011;49839;51.798;10.954;2022-07-29T14:59:21;9.25;;;1.75;;
63693;SDS011;49839;51.798;10.954;2022-07-29T15:01:48;7.00;;;2.08;;
63693;SDS011;49839;51.798;10.954;2022-07-29T15:04:16;5.05;;;2.20;;
63693;SDS011;49839;51.798;10.954;2022-07-29T15:09:13;4.10;;;1.70;;
63693;SDS011;49839;51.798;10.954;2022-07-29T15:11:42;8.23;;;2.28;;
63693;SDS011;49839;51.798;10.954;2022-07-29T15:16:37;8.95;;;2.30;;
63693;SDS011;49839;51.798;10.954;2022-07-29T15:19:12;7.82;;;1.90;;
63693;SDS011;49839;51.798;10.954;2022-07-29T15:21:39;5.47;;;1.90;;
63693;SDS011;49839;51.798;10.954;2022-07-29T15:24:14;5.47;;;1.70;;
63693;SDS011;49839;51.798;10.954;2022-07-29T15:26:43;8.38;;;2.53;;
63693;SDS011;49839;51.798;10.954;2022-07-29T15:29:10;6.10;;;1.73;;